Time;durP1;ratioP1;P1;durP2;ratioP2;P2;SDS_P1;SDS_P2;PMS_P1;PMS_P2;Temp;Humidity;BMP_temperature;BMP_pressure;BME280_temperature;BME280_humidity;BME280_pressure;Samples;Min_cycle;Max_cycle;Signal;HPM_P1;HPM_P2
2022/01/20 08:10:02;;;;;;;;;;;26.10;52.10;;;;;;3781636;23;19925;-91
2022/01/20 08:11:34;;;;;;;;;;;26.10;50.80;;;;;;3779067;23;19971;-91
2022/01/20 08:13:06;;;;;;;;;;;26.10;45.70;;;;;;3778426;23;19970;-92
2022/01/20 08:14:37;;;;;;;;;;;26.00;43.90;;;;;;3779301;23;19960;-91
2022/01/20 08:16:09;;;;;;;;;;;26.00;47.20;;;;;;3778061;22;19925;-91
2022/01/20 08:17:41;;;;;;;;;;;26.10;47.70;;;;;;3779754;22;20296;-91
2022/01/20 08:19:12;;;;;;;;;;;26.10;48.30;;;;;;3778657;23;19928;-90
2022/01/20 08:20:44;;;;;;;;;;;26.20;48.90;;;;;;3780436;23;20368;-89
2022/01/20 08:22:16;;;;;;;;;;;26.30;49.20;;;;;;3778508;22;19921;-91
2022/01/20 08:23:47;;;;;;;;;;;26.30;49.30;;;;;;3779492;23;19925;-91
2022/01/20 08:25:20;;;;;;;;;;;26.30;49.90;;;;;;3779966;23;19943;-89
2022/01/20 08:26:52;;;;;;;;;;;26.30;50.40;;;;;;3779298;23;20620;-88
2022/01/20 08:28:24;;;;;;;;;;;26.40;50.00;;;;;;3778566;22;20286;-92
2022/01/20 08:29:55;;;;;;;;;;;26.40;50.40;;;;;;3779976;23;19972;-91
2022/01/20 08:31:29;;;;;;;;;;;26.30;49.70;;;;;;3779081;22;20308;-91
2022/01/20 08:33:00;;;;;;;;;;;26.40;49.70;;;;;;3780879;22;19925;-91
2022/01/20 08:34:44;;;;;;;;;;;26.40;49.80;;;;;;3780131;23;19921;-91
2022/01/20 08:36:18;;;;;;;;;;;26.40;49.90;;;;;;3782289;23;19936;-91
2022/01/20 08:37:50;;;;;;;;;;;26.40;49.90;;;;;;3781021;22;19921;-91
2022/01/20 08:39:35;;;;;;;;;;;26.50;50.00;;;;;;3780318;23;19925;-92
2022/01/20 08:41:09;;;;;;;;;;;26.50;49.90;;;;;;3781395;23;20489;-92
2022/01/20 08:42:40;;;;;;;;;;;26.60;50.10;;;;;;3779678;22;19972;-91
2022/01/20 08:44:12;;;;;;;;;;;26.50;50.00;;;;;;3780201;23;19925;-90
2022/01/20 08:45:44;;;;;;;;;;;26.60;49.80;;;;;;3778550;22;19921;-91
2022/01/20 08:47:18;;;;;;;;;;;26.70;50.60;;;;;;3779611;22;19995;-92
2022/01/20 08:48:49;;;;;;;;;;;26.70;50.20;;;;;;3780707;23;19997;-89
2022/01/20 08:50:21;;;;;;;;;;;26.70;50.20;;;;;;3779743;23;19930;-92
2022/01/20 08:51:54;;;;;;;;;;;26.80;50.50;;;;;;3781223;23;20299;-89
2022/01/20 08:53:26;;;;;;;;;;;26.80;49.90;;;;;;3780652;22;19922;-90
2022/01/20 08:54:58;;;;;;;;;;;26.80;42.70;;;;;;3779746;23;19937;-93
2022/01/20 08:56:34;;;;;;;;;;;26.80;44.00;;;;;;3782021;23;19925;-89
2022/01/20 08:58:06;;;;;;;;;;;26.80;46.70;;;;;;3779593;22;20275;-88
2022/01/20 08:59:40;;;;;;;;;;;26.80;46.80;;;;;;3780381;23;19926;-89
2022/01/20 09:01:12;;;;;;;;;;;26.90;46.80;;;;;;3780282;22;20265;-92
2022/01/20 09:02:44;;;;;;;;;;;26.90;46.90;;;;;;3778833;22;19988;-91
2022/01/20 09:04:15;;;;;;;;;;;26.90;47.80;;;;;;3780282;23;19952;-91
2022/01/20 09:05:47;;;;;;;;;;;27.00;48.80;;;;;;3780429;23;19921;-93
2022/01/20 09:07:19;;;;;;;;;;;27.10;48.60;;;;;;3779155;22;19921;-88
2022/01/20 09:08:50;;;;;;;;;;;27.10;49.10;;;;;;3782063;23;20299;-88
2022/01/20 09:10:22;;;;;;;;;;;27.20;49.10;;;;;;3780485;23;20259;-89
2022/01/20 09:12:15;;;;;;;;;;;27.20;49.10;;;;;;3781458;23;19921;-89
2022/01/20 09:15:46;;;;;;;;;;;27.20;49.50;;;;;;3742811;23;20329;-90
2022/01/20 09:17:18;;;;;;;;;;;27.30;50.20;;;;;;3743693;23;19949;-86
2022/01/20 09:18:50;;;;;;;;;;;27.30;50.90;;;;;;3782374;23;20343;-89
2022/01/20 09:20:22;;;;;;;;;;;27.40;50.00;;;;;;3780630;23;19941;-86
2022/01/20 09:21:53;;;;;;;;;;;27.30;50.00;;;;;;3783389;23;20221;-88
2022/01/20 09:23:25;;;;;;;;;;;27.40;50.30;;;;;;3778413;22;19926;-87
2022/01/20 09:25:09;;;;;;;;;;;27.40;51.20;;;;;;3786096;23;20263;-90
2022/01/20 09:26:41;;;;;;;;;;;27.50;50.70;;;;;;3785250;23;20302;-88
2022/01/20 09:28:14;;;;;;;;;;;27.60;52.20;;;;;;3780858;22;19928;-88
2022/01/20 09:29:46;;;;;;;;;;;27.50;51.60;;;;;;3780792;23;19997;-89
2022/01/20 09:31:26;;;;;;;;;;;27.60;54.40;;;;;;3780172;22;19929;-90
2022/01/20 09:33:11;;;;;;;;;;;27.60;51.70;;;;;;3780714;22;19922;-91
2022/01/20 09:34:43;;;;;;;;;;;27.60;51.00;;;;;;3782297;23;20298;-89
2022/01/20 09:36:15;;;;;;;;;;;27.70;50.90;;;;;;3780363;23;19925;-89
2022/01/20 09:37:47;;;;;;;;;;;27.70;50.60;;;;;;3781830;22;20251;-89
2022/01/20 09:39:18;;;;;;;;;;;27.70;50.90;;;;;;3782008;23;19922;-86
2022/01/20 09:40:50;;;;;;;;;;;27.70;50.40;;;;;;3781590;23;19921;-88
2022/01/20 09:42:22;;;;;;;;;;;27.70;49.40;;;;;;3781238;22;19934;-88
2022/01/20 09:43:55;;;;;;;;;;;27.70;49.80;;;;;;3781217;23;19921;-89
2022/01/20 09:45:27;;;;;;;;;;;27.80;50.30;;;;;;3782238;22;19925;-88
2022/01/20 09:46:59;;;;;;;;;;;27.80;50.40;;;;;;3780833;23;19925;-89
2022/01/20 09:48:32;;;;;;;;;;;27.90;50.70;;;;;;3779592;22;19928;-89
2022/01/20 09:50:03;;;;;;;;;;;27.80;50.50;;;;;;3783089;23;19909;-89
2022/01/20 09:51:35;;;;;;;;;;;27.90;50.70;;;;;;3784514;23;19932;-89
2022/01/20 09:53:07;;;;;;;;;;;27.90;51.60;;;;;;3781081;22;19922;-92
2022/01/20 09:54:39;;;;;;;;;;;27.90;50.90;;;;;;3780740;23;19925;-90
2022/01/20 09:56:12;;;;;;;;;;;27.90;50.90;;;;;;3782306;23;19921;-89
2022/01/20 09:57:44;;;;;;;;;;;28.00;50.50;;;;;;3781611;22;19928;-88
2022/01/20 09:59:17;;;;;;;;;;;28.00;51.00;;;;;;3780001;23;19926;-85
2022/01/20 10:00:49;;;;;;;;;;;28.00;50.30;;;;;;3782333;22;20256;-88
2022/01/20 10:02:20;;;;;;;;;;;28.00;49.40;;;;;;3779888;22;19921;-88
2022/01/20 10:03:53;;;;;;;;;;;28.00;50.20;;;;;;3782020;23;20378;-89
2022/01/20 10:05:25;;;;;;;;;;;28.10;51.40;;;;;;3782167;23;19965;-89
2022/01/20 10:06:58;;;;;;;;;;;28.20;52.20;;;;;;3781266;23;19921;-88
2022/01/20 10:08:31;;;;;;;;;;;28.20;51.90;;;;;;3781186;22;19929;-88
2022/01/20 10:10:03;;;;;;;;;;;28.20;50.60;;;;;;3779340;23;19944;-89
2022/01/20 10:11:34;;;;;;;;;;;28.20;50.10;;;;;;3779817;23;19933;-86
2022/01/20 10:13:06;;;;;;;;;;;28.20;50.70;;;;;;3780390;22;20288;-88
2022/01/20 10:14:41;;;;;;;;;;;28.30;50.70;;;;;;3779852;23;19979;-90
2022/01/20 10:16:13;;;;;;;;;;;28.30;50.60;;;;;;3780677;22;19952;-88
2022/01/20 10:17:45;;;;;;;;;;;28.30;49.80;;;;;;3778840;22;20406;-90
2022/01/20 10:19:22;;;;;;;;;;;28.30;50.70;;;;;;3780691;23;19975;-88
2022/01/20 10:20:55;;;;;;;;;;;28.30;50.30;;;;;;3781534;23;19921;-87
2022/01/20 10:22:27;;;;;;;;;;;28.30;49.60;;;;;;3778262;22;19947;-88
2022/01/20 10:24:07;;;;;;;;;;;28.30;49.30;;;;;;3781436;23;20288;-90
2022/01/20 10:25:39;;;;;;;;;;;28.30;49.30;;;;;;3780853;23;20340;-91
2022/01/20 10:27:11;;;;;;;;;;;28.40;49.70;;;;;;3780446;22;20343;-90
2022/01/20 10:28:53;;;;;;;;;;;28.40;50.00;;;;;;3780946;23;19925;-89
2022/01/20 10:30:27;;;;;;;;;;;28.40;49.80;;;;;;3779227;22;19921;-88
2022/01/20 10:31:58;;;;;;;;;;;28.40;49.60;;;;;;3780725;23;19967;-88
2022/01/20 10:33:39;;;;;;;;;;;28.40;49.10;;;;;;3779867;22;19971;-88
2022/01/20 10:35:12;;;;;;;;;;;28.40;48.70;;;;;;3779121;23;19925;-87
2022/01/20 10:36:50;;;;;;;;;;;28.50;48.80;;;;;;3780605;23;20307;-87
2022/01/20 10:38:21;;;;;;;;;;;28.50;48.80;;;;;;3778971;22;19921;-87
2022/01/20 10:39:53;;;;;;;;;;;28.50;49.00;;;;;;3779982;23;19948;-87
2022/01/20 10:41:28;;;;;;;;;;;28.50;48.70;;;;;;3780475;23;19909;-87
2022/01/20 10:43:00;;;;;;;;;;;28.50;48.60;;;;;;3778178;22;19975;-87
2022/01/20 10:44:40;;;;;;;;;;;28.50;48.60;;;;;;3780426;23;19922;-86
2022/01/20 10:46:13;;;;;;;;;;;28.50;48.60;;;;;;3778233;22;19921;-81
2022/01/20 10:47:48;;;;;;;;;;;28.50;48.00;;;;;;3778762;22;19922;-84
2022/01/20 10:49:23;;;;;;;;;;;28.60;48.20;;;;;;3779550;23;19921;-86
2022/01/20 10:50:55;;;;;;;;;;;28.60;48.90;;;;;;3779258;23;19951;-87
2022/01/20 10:52:35;;;;;;;;;;;28.70;49.50;;;;;;3779651;22;20336;-90
2022/01/20 10:54:07;;;;;;;;;;;28.70;50.00;;;;;;3779881;23;19944;-89
2022/01/20 10:55:39;;;;;;;;;;;28.70;50.60;;;;;;3781402;23;19966;-86
2022/01/20 10:57:11;;;;;;;;;;;28.80;50.10;;;;;;3778524;22;19972;-86
2022/01/20 10:58:43;;;;;;;;;;;28.80;50.10;;;;;;3779397;23;20348;-88
2022/01/20 11:00:16;;;;;;;;;;;28.80;50.40;;;;;;3781619;22;19976;-86
2022/01/20 11:02:01;;;;;;;;;;;28.60;39.10;;;;;;3781010;23;19922;-86
2022/01/20 11:03:35;;;;;;;;;;;28.40;37.80;;;;;;3782285;23;20000;-86
2022/01/20 11:05:07;;;;;;;;;;;28.20;37.90;;;;;;3782731;23;19928;-88
2022/01/20 11:06:40;;;;;;;;;;;28.10;38.40;;;;;;3784220;23;19922;-90
2022/01/20 11:08:12;;;;;;;;;;;28.10;38.60;;;;;;3781588;22;19929;-88
2022/01/20 11:09:46;;;;;;;;;;;28.10;38.80;;;;;;3783344;23;19961;-86
2022/01/20 11:11:18;;;;;;;;;;;28.00;38.40;;;;;;3781344;23;19922;-89
2022/01/20 11:12:50;;;;;;;;;;;27.90;38.40;;;;;;3786426;22;19922;-88
2022/01/20 11:14:21;;;;;;;;;;;27.80;38.50;;;;;;3785810;23;19921;-88
2022/01/20 11:15:53;;;;;;;;;;;27.80;38.50;;;;;;3781087;22;20318;-87
2022/01/20 11:17:28;;;;;;;;;;;27.80;38.50;;;;;;3784071;22;19941;-87
2022/01/20 11:19:00;;;;;;;;;;;27.70;38.60;;;;;;3780514;23;19937;-89
2022/01/20 11:20:39;;;;;;;;;;;27.70;38.60;;;;;;3782564;23;19921;-89
2022/01/20 11:22:12;;;;;;;;;;;27.60;38.60;;;;;;3779643;22;19971;-90
2022/01/20 11:23:43;;;;;;;;;;;27.60;38.60;;;;;;3779244;23;19941;-88
2022/01/20 11:25:15;;;;;;;;;;;27.60;38.70;;;;;;3782911;23;19921;-89
2022/01/20 11:26:50;;;;;;;;;;;27.60;38.70;;;;;;3782826;23;19975;-90
2022/01/20 11:28:22;;;;;;;;;;;27.60;39.10;;;;;;3780506;22;19943;-89
2022/01/20 11:29:56;;;;;;;;;;;27.60;39.10;;;;;;3780072;23;19944;-87
2022/01/20 11:31:35;;;;;;;;;;;27.60;39.20;;;;;;3779659;22;19925;-91
2022/01/20 11:33:09;;;;;;;;;;;27.60;38.70;;;;;;3780909;22;19922;-90
2022/01/20 11:34:40;;;;;;;;;;;27.50;39.10;;;;;;3780717;23;19921;-88
2022/01/20 11:36:21;;;;;;;;;;;27.50;39.20;;;;;;3780587;23;19922;-90
2022/01/20 11:37:57;;;;;;;;;;;27.40;39.00;;;;;;3778941;22;19971;-89
2022/01/20 11:39:28;;;;;;;;;;;27.40;39.00;;;;;;3778972;23;19929;-89
2022/01/20 11:41:01;;;;;;;;;;;27.40;39.00;;;;;;3780089;23;19928;-88
2022/01/20 11:42:33;;;;;;;;;;;27.30;39.20;;;;;;3784297;22;20307;-85
2022/01/20 11:44:08;;;;;;;;;;;27.30;39.20;;;;;;3786422;23;20536;-85
2022/01/20 11:45:40;;;;;;;;;;;27.20;39.30;;;;;;3779664;22;20016;-85
2022/01/20 11:47:12;;;;;;;;;;;27.20;39.40;;;;;;3778402;22;19928;-85
2022/01/20 11:48:52;;;;;;;;;;;27.20;40.10;;;;;;3779690;23;19974;-86
2022/01/20 11:50:24;;;;;;;;;;;27.30;41.50;;;;;;3778632;23;19931;-84
2022/01/20 11:51:56;;;;;;;;;;;27.50;42.10;;;;;;3779460;23;19921;-83
2022/01/20 11:53:28;;;;;;;;;;;27.60;42.60;;;;;;3778296;22;19992;-86
2022/01/20 11:55:00;;;;;;;;;;;27.70;43.50;;;;;;3779407;23;19921;-86
2022/01/20 11:56:33;;;;;;;;;;;27.70;44.20;;;;;;3775764;23;20260;-86
2022/01/20 11:58:10;;;;;;;;;;;27.80;43.80;;;;;;3777039;22;19971;-89
2022/01/20 11:59:42;;;;;;;;;;;27.80;43.80;;;;;;3780305;23;20299;-89
2022/01/20 12:01:14;;;;;;;;;;;27.80;44.30;;;;;;3780188;22;20588;-88
2022/01/20 12:02:45;;;;;;;;;;;27.90;45.00;;;;;;3777870;22;19925;-86
2022/01/20 12:04:18;;;;;;;;;;;27.90;44.70;;;;;;3778252;23;19988;-84
2022/01/20 12:05:57;;;;;;;;;;;27.90;44.60;;;;;;3779758;23;19922;-89
2022/01/20 12:07:29;;;;;;;;;;;27.90;45.10;;;;;;3779697;22;19992;-88
2022/01/20 12:09:01;;;;;;;;;;;28.00;45.20;;;;;;3780620;23;19926;-86
2022/01/20 12:10:35;;;;;;;;;;;28.00;45.40;;;;;;3779908;23;19921;-92
2022/01/20 12:12:07;;;;;;;;;;;28.00;45.50;;;;;;3783087;22;19922;-86
2022/01/20 12:13:45;;;;;;;;;;;27.90;40.70;;;;;;3779207;23;19921;-86
2022/01/20 12:15:18;;;;;;;;;;;27.80;38.60;;;;;;3778425;22;19921;-87
2022/01/20 12:16:49;;;;;;;;;;;27.70;38.40;;;;;;3779058;23;19925;-86
2022/01/20 12:18:21;;;;;;;;;;;27.60;39.20;;;;;;3778726;22;19970;-85
2022/01/20 12:19:55;;;;;;;;;;;27.50;38.70;;;;;;3780769;23;19925;-89
2022/01/20 12:21:27;;;;;;;;;;;27.40;38.90;;;;;;3780169;23;20398;-88
2022/01/20 12:22:59;;;;;;;;;;;27.30;39.10;;;;;;3779076;22;19921;-89
2022/01/20 12:24:31;;;;;;;;;;;27.30;39.20;;;;;;3779977;23;19922;-86
2022/01/20 12:26:03;;;;;;;;;;;27.20;39.20;;;;;;3778537;23;19928;-85
2022/01/20 12:27:34;;;;;;;;;;;27.20;39.20;;;;;;3778487;22;20000;-87
2022/01/20 12:29:07;;;;;;;;;;;27.20;39.30;;;;;;3779833;23;19949;-86
2022/01/20 12:30:40;;;;;;;;;;;27.20;39.20;;;;;;3780280;22;20299;-86
2022/01/20 12:32:12;;;;;;;;;;;27.20;39.10;;;;;;3778577;22;19956;-86
2022/01/20 12:33:52;;;;;;;;;;;27.10;39.20;;;;;;3779918;23;19925;-87
2022/01/20 12:35:25;;;;;;;;;;;27.10;39.30;;;;;;3785759;23;20005;-84
2022/01/20 12:36:57;;;;;;;;;;;27.00;39.50;;;;;;3781175;23;19921;-87
2022/01/20 12:38:29;;;;;;;;;;;27.00;39.40;;;;;;3778576;22;19928;-88
2022/01/20 12:40:01;;;;;;;;;;;27.00;39.60;;;;;;3780415;23;20233;-87
2022/01/20 12:41:32;;;;;;;;;;;27.00;39.60;;;;;;3779461;23;19928;-88
2022/01/20 12:43:04;;;;;;;;;;;27.10;39.40;;;;;;3779489;22;19983;-86
2022/01/20 12:44:39;;;;;;;;;;;27.10;39.30;;;;;;3778394;23;19922;-84
2022/01/20 12:46:10;;;;;;;;;;;27.10;39.50;;;;;;3777530;22;19921;-86
2022/01/20 12:47:42;;;;;;;;;;;27.10;39.50;;;;;;3779694;22;20355;-87
2022/01/20 12:49:16;;;;;;;;;;;27.00;39.40;;;;;;3778373;23;19929;-86
2022/01/20 12:50:57;;;;;;;;;;;26.90;39.60;;;;;;3778700;23;19928;-85
2022/01/20 12:52:29;;;;;;;;;;;26.80;39.50;;;;;;3778617;22;19925;-85
2022/01/20 12:54:05;;;;;;;;;;;26.90;39.70;;;;;;3778838;23;19921;-86
2022/01/20 12:59:45;;;;;;;;;;;26.80;40.10;;;;;;3760174;23;20260;-88
2022/01/20 13:01:16;;;;;;;;;;;26.80;39.80;;;;;;3777992;22;20391;-90
2022/01/20 13:02:50;;;;;;;;;;;26.70;39.90;;;;;;3778886;22;19930;-89
2022/01/20 13:04:23;;;;;;;;;;;26.70;40.00;;;;;;3778660;23;19952;-89
2022/01/20 13:05:59;;;;;;;;;;;26.80;40.20;;;;;;3781787;23;19921;-90
2022/01/20 13:07:32;;;;;;;;;;;26.80;40.10;;;;;;3780852;22;19925;-88
2022/01/20 13:09:06;;;;;;;;;;;26.80;39.90;;;;;;3781714;23;19963;-87
2022/01/20 13:10:39;;;;;;;;;;;26.80;39.90;;;;;;3784687;23;19947;-86
2022/01/20 13:12:11;;;;;;;;;;;26.80;39.90;;;;;;3779069;22;19921;-88
2022/01/20 13:13:52;;;;;;;;;;;26.70;39.70;;;;;;3779500;23;19921;-88
2022/01/20 13:15:24;;;;;;;;;;;26.70;40.00;;;;;;3778247;22;19925;-90
2022/01/20 13:16:57;;;;;;;;;;;26.60;40.00;;;;;;3781611;23;19968;-91
2022/01/20 13:18:29;;;;;;;;;;;26.60;40.10;;;;;;3781348;23;20045;-88
2022/01/20 14:00:13;;;;;;;;;;;27.20;47.10;;;;;;3781330;23;19928;-87
2022/01/20 14:01:45;;;;;;;;;;;27.00;40.00;;;;;;3780453;23;19921;-87
2022/01/20 14:03:21;;;;;;;;;;;26.90;40.60;;;;;;3767308;23;20245;-87
2022/01/20 14:04:53;;;;;;;;;;;26.80;39.40;;;;;;3780274;23;19933;-88
2022/01/20 14:06:24;;;;;;;;;;;26.70;39.70;;;;;;3780604;23;19921;-85
2022/01/20 14:07:56;;;;;;;;;;;26.60;39.90;;;;;;3782550;22;19928;-86
2022/01/20 14:09:28;;;;;;;;;;;26.50;40.20;;;;;;3780658;23;19928;-88
2022/01/20 14:11:05;;;;;;;;;;;26.50;40.30;;;;;;3779961;23;19988;-88
2022/01/20 14:12:40;;;;;;;;;;;26.50;40.70;;;;;;3777929;22;19976;-88
2022/01/20 14:14:30;;;;;;;;;;;26.50;40.40;;;;;;3780494;23;19921;-89
2022/01/20 14:16:20;;;;;;;;;;;26.40;40.30;;;;;;3778728;22;19921;-89
2022/01/20 14:17:56;;;;;;;;;;;26.40;40.40;;;;;;3775975;22;19926;-88
2022/01/20 14:19:43;;;;;;;;;;;26.40;40.50;;;;;;3782421;23;19921;-91
2022/01/20 14:21:20;;;;;;;;;;;26.30;40.60;;;;;;3781040;23;19928;-89
2022/01/20 14:22:52;;;;;;;;;;;26.30;40.60;;;;;;3778092;22;19945;-88
2022/01/20 14:24:24;;;;;;;;;;;26.30;40.70;;;;;;3780717;23;19925;-89
2022/01/20 14:38:29;;;;;;;;;;;26.10;40.90;;;;;;3805549;22;20277;-87
2022/01/20 14:44:35;;;;;;;;;;;26.20;41.30;;;;;;3736200;23;20251;-90
2022/01/20 14:46:11;;;;;;;;;;;26.20;41.20;;;;;;3753481;23;19914;-89
2022/01/20 14:51:59;;;;;;;;;;;26.30;41.60;;;;;;3700801;24;19923;-89
2022/01/20 14:53:51;;;;;;;;;;;26.50;43.10;;;;;;3733621;23;20004;-92
2022/01/20 14:55:25;;;;;;;;;;;26.60;43.70;;;;;;3772355;23;19980;-89
2022/01/20 14:57:00;;;;;;;;;;;26.70;44.40;;;;;;3790521;23;19928;-90
2022/01/20 14:58:43;;;;;;;;;;;26.80;44.30;;;;;;3808399;23;19957;-92
2022/01/20 15:02:36;;;;;;;;;;;26.60;41.10;;;;;;3766868;23;20243;-91
2022/01/20 19:21:15;;;;;;;;;;;23.80;50.10;;;;;;3896851;22;19976;-85
2022/01/20 19:22:54;;;;;;;;;;;23.80;49.90;;;;;;3890009;22;19919;-86
2022/01/20 19:24:27;;;;;;;;;;;23.90;50.00;;;;;;3891808;22;19919;-83
2022/01/20 19:25:58;;;;;;;;;;;23.90;49.90;;;;;;3892254;22;19919;-83
2022/01/20 19:27:30;;;;;;;;;;;23.90;50.00;;;;;;3892656;22;19985;-81
2022/01/20 19:29:02;;;;;;;;;;;23.90;50.00;;;;;;3893320;22;19919;-85
2022/01/20 19:30:33;;;;;;;;;;;23.90;50.00;;;;;;3886284;22;19950;-83
2022/01/20 19:32:05;;;;;;;;;;;23.90;50.00;;;;;;3874876;23;19920;-84
2022/01/20 19:33:37;;;;;;;;;;;23.90;50.10;;;;;;3873606;22;19947;-85
2022/01/20 19:35:09;;;;;;;;;;;23.90;50.20;;;;;;3873265;23;19919;-84
2022/01/20 19:36:40;;;;;;;;;;;24.00;50.60;;;;;;3875023;23;19954;-88
2022/01/20 19:38:14;;;;;;;;;;;24.00;50.40;;;;;;3874452;22;19928;-85
2022/01/20 19:39:46;;;;;;;;;;;24.00;50.40;;;;;;3874795;23;19970;-85
2022/01/20 19:41:18;;;;;;;;;;;24.00;50.30;;;;;;3874183;23;19919;-86
2022/01/20 19:42:50;;;;;;;;;;;24.00;50.40;;;;;;3873336;22;19922;-85
2022/01/20 19:44:21;;;;;;;;;;;24.00;50.30;;;;;;3873611;23;19926;-84
2022/01/20 19:45:53;;;;;;;;;;;24.00;50.40;;;;;;3875140;22;19920;-85
2022/01/20 19:47:25;;;;;;;;;;;24.00;50.50;;;;;;3873265;22;19974;-86
2022/01/20 19:48:56;;;;;;;;;;;24.00;50.50;;;;;;3873781;23;19923;-87
2022/01/20 19:50:32;;;;;;;;;;;24.00;50.50;;;;;;3875242;23;19919;-86
2022/01/20 19:52:04;;;;;;;;;;;24.00;50.50;;;;;;3875538;23;19990;-85
2022/01/20 19:53:37;;;;;;;;;;;24.00;50.40;;;;;;3873614;22;19950;-87
2022/01/20 19:55:09;;;;;;;;;;;24.00;50.60;;;;;;3875517;23;19970;-85
2022/01/20 19:56:41;;;;;;;;;;;24.00;50.90;;;;;;3875091;23;19919;-84
2022/01/20 19:58:13;;;;;;;;;;;23.90;50.90;;;;;;3874752;22;19947;-85
2022/01/20 19:59:44;;;;;;;;;;;23.90;51.10;;;;;;3875539;23;20305;-86
2022/01/20 20:01:16;;;;;;;;;;;23.90;51.20;;;;;;3874012;22;19982;-83
2022/01/20 20:02:48;;;;;;;;;;;23.90;51.10;;;;;;3878534;22;19919;-86
2022/01/20 20:04:24;;;;;;;;;;;23.80;51.20;;;;;;3874395;23;20285;-85
2022/01/20 20:05:56;;;;;;;;;;;23.70;51.40;;;;;;3874665;23;20013;-85
2022/01/20 20:07:28;;;;;;;;;;;23.70;51.60;;;;;;3874030;22;19924;-85
2022/01/20 20:09:02;;;;;;;;;;;23.60;51.70;;;;;;3874183;23;19933;-85
2022/01/20 20:10:35;;;;;;;;;;;23.60;51.80;;;;;;3874776;23;19928;-86
2022/01/20 20:12:07;;;;;;;;;;;23.60;51.90;;;;;;3874484;23;19985;-83
2022/01/20 20:13:44;;;;;;;;;;;23.50;51.10;;;;;;3874362;22;19931;-83
2022/01/20 20:15:16;;;;;;;;;;;23.40;51.50;;;;;;3874360;22;20310;-83
2022/01/20 20:16:48;;;;;;;;;;;23.30;51.50;;;;;;3874840;23;19973;-84
2022/01/20 20:18:20;;;;;;;;;;;23.30;51.40;;;;;;3875304;22;20346;-83
2022/01/20 20:19:52;;;;;;;;;;;23.20;51.30;;;;;;3874521;23;19924;-84
2022/01/20 20:21:23;;;;;;;;;;;23.20;51.20;;;;;;3876127;23;19920;-83
2022/01/20 20:22:55;;;;;;;;;;;23.20;51.10;;;;;;3874434;22;19919;-84
2022/01/20 20:24:29;;;;;;;;;;;23.20;51.00;;;;;;3874897;23;19924;-83
2022/01/20 20:26:01;;;;;;;;;;;23.10;50.90;;;;;;3876478;23;20014;-82
2022/01/20 20:27:32;;;;;;;;;;;23.10;50.80;;;;;;3875437;22;19969;-83
2022/01/20 20:29:04;;;;;;;;;;;23.10;50.80;;;;;;3876211;23;19945;-82
2022/01/20 20:30:36;;;;;;;;;;;23.00;50.60;;;;;;3875469;22;20313;-81
2022/01/20 20:32:08;;;;;;;;;;;23.00;50.60;;;;;;3875192;23;19927;-83
2022/01/20 20:33:39;;;;;;;;;;;23.00;50.60;;;;;;3875618;22;20010;-82
2022/01/20 20:35:11;;;;;;;;;;;23.00;50.40;;;;;;3875365;23;20275;-83
2022/01/20 20:36:43;;;;;;;;;;;23.00;50.40;;;;;;3876549;23;19919;-82
2022/01/20 20:38:15;;;;;;;;;;;23.00;50.30;;;;;;3876295;22;20364;-82
2022/01/20 20:39:47;;;;;;;;;;;22.90;50.20;;;;;;3875770;23;20239;-83
2022/01/20 20:41:25;;;;;;;;;;;22.90;50.20;;;;;;3877014;23;19982;-83
2022/01/20 20:42:57;;;;;;;;;;;22.90;50.10;;;;;;3874658;22;19923;-83
2022/01/20 20:44:29;;;;;;;;;;;22.90;50.10;;;;;;3876755;23;19920;-82
2022/01/20 20:46:00;;;;;;;;;;;22.90;50.00;;;;;;3875121;22;19920;-82
2022/01/20 20:47:32;;;;;;;;;;;22.90;50.00;;;;;;3874438;22;19924;-83
2022/01/20 20:49:03;;;;;;;;;;;22.80;49.80;;;;;;3876567;23;20017;-82
2022/01/20 20:50:35;;;;;;;;;;;22.80;49.80;;;;;;3874717;23;19920;-82
2022/01/20 20:52:08;;;;;;;;;;;22.80;49.80;;;;;;3876711;23;19924;-80
2022/01/20 20:53:39;;;;;;;;;;;22.80;49.80;;;;;;3875327;22;19943;-82
2022/01/20 20:55:15;;;;;;;;;;;22.70;49.70;;;;;;3875307;23;20305;-82
2022/01/20 20:56:46;;;;;;;;;;;22.80;49.80;;;;;;3878010;23;19928;-82
2022/01/20 20:58:18;;;;;;;;;;;22.70;49.80;;;;;;3874159;22;19927;-82
2022/01/20 20:59:50;;;;;;;;;;;22.70;49.70;;;;;;3876621;23;19920;-82
2022/01/20 21:01:21;;;;;;;;;;;22.70;49.60;;;;;;3875000;22;19920;-82
2022/01/20 21:02:53;;;;;;;;;;;22.70;49.70;;;;;;3874786;22;19919;-83
2022/01/20 21:04:25;;;;;;;;;;;22.70;49.60;;;;;;3876042;23;20283;-83
2022/01/20 21:05:57;;;;;;;;;;;22.70;49.60;;;;;;3874386;23;20410;-83
2022/01/20 21:07:29;;;;;;;;;;;22.70;49.60;;;;;;3875909;22;20360;-83
2022/01/20 21:09:01;;;;;;;;;;;22.60;49.50;;;;;;3875114;23;19919;-83
2022/01/20 21:10:34;;;;;;;;;;;22.60;49.60;;;;;;3875114;23;20297;-83
2022/01/20 21:12:07;;;;;;;;;;;22.60;49.40;;;;;;3876195;23;20243;-83
2022/01/20 21:13:39;;;;;;;;;;;22.60;49.40;;;;;;3873595;22;20307;-82
2022/01/20 21:15:11;;;;;;;;;;;22.60;49.40;;;;;;3873555;22;19923;-82
2022/01/20 21:16:42;;;;;;;;;;;22.60;49.40;;;;;;3875225;23;20334;-83
2022/01/20 21:18:14;;;;;;;;;;;22.60;49.50;;;;;;3874633;22;20396;-81
2022/01/20 21:19:46;;;;;;;;;;;22.60;49.40;;;;;;3875380;23;20011;-82
2022/01/20 21:21:18;;;;;;;;;;;22.50;49.30;;;;;;3874736;23;19923;-82
2022/01/20 21:22:50;;;;;;;;;;;22.50;49.20;;;;;;3874994;22;19920;-83
2022/01/20 21:24:21;;;;;;;;;;;22.50;49.30;;;;;;3874204;23;19965;-83
2022/01/20 21:25:54;;;;;;;;;;;22.50;49.30;;;;;;3876191;23;19919;-82
2022/01/20 21:27:26;;;;;;;;;;;22.50;49.30;;;;;;3874801;22;19920;-82
2022/01/20 21:28:58;;;;;;;;;;;22.40;49.30;;;;;;3874116;23;20312;-83
2022/01/20 21:30:29;;;;;;;;;;;22.40;49.20;;;;;;3874323;22;19920;-82
2022/01/20 21:32:01;;;;;;;;;;;22.40;49.30;;;;;;3874352;23;20546;-82
2022/01/20 21:33:37;;;;;;;;;;;22.40;49.20;;;;;;3874391;22;19980;-81
2022/01/20 21:35:09;;;;;;;;;;;22.40;49.20;;;;;;3875030;23;19919;-81
2022/01/20 21:36:41;;;;;;;;;;;22.40;49.20;;;;;;3874179;23;19996;-82
2022/01/20 21:38:13;;;;;;;;;;;22.40;49.30;;;;;;3874388;22;19920;-85
2022/01/20 21:39:44;;;;;;;;;;;22.40;49.20;;;;;;3873990;23;19920;-85
2022/01/20 21:41:19;;;;;;;;;;;22.40;49.20;;;;;;3875919;23;19930;-85
2022/01/20 21:42:51;;;;;;;;;;;22.30;49.20;;;;;;3875558;22;19923;-86
2022/01/20 21:44:23;;;;;;;;;;;22.30;49.80;;;;;;3873484;23;19969;-85
2022/01/20 21:45:55;;;;;;;;;;;22.30;49.30;;;;;;3872581;22;20318;-85
2022/01/20 21:47:26;;;;;;;;;;;22.30;49.30;;;;;;3874262;22;19927;-85
2022/01/20 21:48:58;;;;;;;;;;;22.30;49.30;;;;;;3875606;23;19928;-83
2022/01/20 21:50:34;;;;;;;;;;;22.30;49.20;;;;;;3876174;23;20204;-86
2022/01/20 21:52:06;;;;;;;;;;;22.20;49.20;;;;;;3874331;23;19943;-85
2022/01/20 21:53:38;;;;;;;;;;;22.20;49.80;;;;;;3873785;22;19927;-84
2022/01/20 21:55:10;;;;;;;;;;;22.20;49.10;;;;;;3874246;23;19924;-84
2022/01/20 21:56:43;;;;;;;;;;;22.20;49.20;;;;;;3874900;23;19919;-85
2022/01/20 21:58:14;;;;;;;;;;;22.20;49.20;;;;;;3875470;22;19919;-84
2022/01/20 21:59:46;;;;;;;;;;;22.20;49.20;;;;;;3873916;23;20277;-83
2022/01/20 22:01:18;;;;;;;;;;;22.20;49.30;;;;;;3875046;22;19994;-85
2022/01/20 22:02:49;;;;;;;;;;;22.20;49.30;;;;;;3873568;22;19919;-86
2022/01/20 22:04:21;;;;;;;;;;;22.20;49.20;;;;;;3874955;23;19970;-84
2022/01/20 22:05:53;;;;;;;;;;;22.10;49.10;;;;;;3875678;23;19974;-84
2022/01/20 22:07:24;;;;;;;;;;;22.10;49.10;;;;;;3873371;22;19974;-85
2022/01/20 22:08:56;;;;;;;;;;;22.10;49.10;;;;;;3874982;23;19920;-86
2022/01/20 22:10:39;;;;;;;;;;;22.10;49.10;;;;;;3874675;23;19923;-85
2022/01/20 22:12:12;;;;;;;;;;;22.10;49.20;;;;;;3874232;22;19924;-85
2022/01/20 22:13:44;;;;;;;;;;;22.10;49.20;;;;;;3876014;23;19919;-85
2022/01/20 22:15:16;;;;;;;;;;;22.00;49.00;;;;;;3872766;22;19926;-85
2022/01/20 22:16:48;;;;;;;;;;;22.10;49.20;;;;;;3876137;23;19969;-85
2022/01/20 22:18:19;;;;;;;;;;;22.00;49.20;;;;;;3873789;22;19923;-84
2022/01/20 22:19:51;;;;;;;;;;;22.00;49.20;;;;;;3875330;23;19919;-85
2022/01/20 22:21:23;;;;;;;;;;;22.00;49.20;;;;;;3876546;23;19920;-84
2022/01/20 22:22:54;;;;;;;;;;;22.00;49.20;;;;;;3873052;22;19927;-85
2022/01/20 22:24:26;;;;;;;;;;;22.00;49.20;;;;;;3876123;23;19970;-85
2022/01/20 22:25:59;;;;;;;;;;;21.90;49.10;;;;;;3875300;23;19919;-83
2022/01/20 22:27:32;;;;;;;;;;;22.00;49.20;;;;;;3874436;22;19935;-85
2022/01/20 22:29:03;;;;;;;;;;;21.90;49.20;;;;;;3875799;23;19930;-85
2022/01/20 22:30:35;;;;;;;;;;;21.90;49.20;;;;;;3873149;22;19949;-86
2022/01/20 22:32:07;;;;;;;;;;;21.90;49.20;;;;;;3876636;23;19943;-85
2022/01/20 22:33:39;;;;;;;;;;;21.90;49.20;;;;;;3872420;22;19926;-86
2022/01/20 22:35:11;;;;;;;;;;;21.90;49.20;;;;;;3874227;23;20294;-85
2022/01/20 22:36:42;;;;;;;;;;;21.90;49.20;;;;;;3875688;23;19970;-80
2022/01/20 22:38:14;;;;;;;;;;;21.90;49.10;;;;;;3873364;22;19920;-84